createdAt,value
2024-05-09T00:00:38.949Z,90.18
2024-05-09T00:02:07.759Z,90.14
2024-05-09T00:03:14.323Z,90.41
2024-05-09T00:04:20.707Z,90.37
2024-05-09T00:05:26.895Z,90.36
2024-05-09T00:06:33.756Z,90.27
2024-05-09T00:07:39.929Z,90.15
2024-05-09T00:08:46.645Z,90.39
2024-05-09T00:09:52.989Z,90.57
2024-05-09T00:10:59.241Z,90.24
2024-05-09T00:12:06.264Z,90.35
2024-05-09T00:13:13.467Z,90.48
2024-05-09T00:14:20.440Z,90.43
2024-05-09T00:15:27.261Z,90.31
2024-05-09T00:16:34.020Z,90.54
2024-05-09T00:17:40.357Z,90.56
2024-05-09T00:18:47.514Z,90.59
2024-05-09T00:19:53.959Z,90.91
2024-05-09T00:21:01.400Z,90.55
2024-05-09T00:22:08.057Z,90.64
2024-05-09T00:23:15.208Z,90.95
2024-05-09T00:24:21.774Z,90.33
2024-05-09T00:25:28.112Z,90.78
2024-05-09T00:26:34.568Z,90.68
2024-05-09T00:27:43.508Z,90.48
2024-05-09T00:28:49.602Z,90.59
2024-05-09T00:29:56.521Z,90.44
2024-05-09T00:31:02.488Z,90.45
2024-05-09T00:32:12.800Z,90.55
2024-05-09T00:33:19.283Z,90.39
2024-05-09T00:34:26.954Z,90.58
2024-05-09T00:35:33.817Z,90.29
2024-05-09T00:36:39.989Z,90.55
2024-05-09T00:37:46.349Z,90.31
2024-05-09T00:38:52.973Z,90.43
2024-05-09T00:39:59.233Z,90.55
2024-05-09T00:41:07.763Z,90.36
2024-05-09T00:42:15.837Z,90.58
2024-05-09T00:43:22.289Z,90.44
2024-05-09T00:44:28.765Z,90.47
2024-05-09T00:45:36.433Z,90.51
2024-05-09T00:46:45.487Z,90.57
2024-05-09T00:47:52.537Z,90.62
2024-05-09T00:49:01.336Z,90.41
2024-05-09T00:50:15.770Z,90.44
2024-05-09T00:51:26.752Z,90.48
2024-05-09T00:52:33.352Z,90.62
2024-05-09T00:53:39.888Z,90.45
2024-05-09T00:54:47.702Z,90.34
2024-05-09T00:55:55.803Z,90.43
2024-05-09T00:57:05.174Z,90.40
2024-05-09T00:58:17.178Z,90.35
2024-05-09T00:59:26.086Z,90.26
2024-05-09T01:00:38.909Z,90.36
2024-05-09T01:01:46.687Z,90.39
2024-05-09T01:02:52.987Z,90.32
2024-05-09T01:04:00.025Z,90.41
2024-05-09T01:05:10.664Z,90.51
2024-05-09T01:06:17.218Z,90.49
2024-05-09T01:07:24.023Z,90.63
2024-05-09T01:08:31.370Z,90.55
2024-05-09T01:09:37.872Z,90.47
2024-05-09T01:10:47.104Z,90.52
2024-05-09T01:11:55.129Z,90.56
2024-05-09T01:13:03.753Z,90.44
2024-05-09T01:14:10.270Z,90.42
2024-05-09T01:15:16.996Z,90.19
2024-05-09T01:16:23.343Z,90.42
2024-05-09T01:17:33.710Z,90.24
2024-05-09T01:18:40.663Z,90.27
2024-05-09T01:19:47.986Z,90.17
2024-05-09T01:20:54.852Z,89.99
2024-05-09T01:22:04.103Z,89.91
2024-05-09T01:23:11.884Z,89.95
2024-05-09T01:24:19.003Z,89.99
2024-05-09T01:25:25.365Z,89.85
2024-05-09T01:26:31.689Z,89.86
2024-05-09T01:27:38.886Z,89.81
2024-05-09T01:28:47.855Z,89.60
2024-05-09T01:29:55.202Z,89.39
2024-05-09T01:31:01.325Z,89.58
2024-05-09T01:32:09.863Z,89.54
2024-05-09T01:33:15.071Z,89.51
2024-05-09T01:34:21.300Z,89.65
2024-05-09T01:35:28.520Z,89.63
2024-05-09T01:36:35.045Z,89.54
2024-05-09T01:37:43.349Z,89.50
2024-05-09T01:38:49.790Z,89.45
2024-05-09T01:39:56.156Z,89.58
2024-05-09T01:41:02.718Z,89.47
2024-05-09T01:42:11.433Z,89.50
2024-05-09T01:43:17.908Z,89.41
2024-05-09T01:44:24.486Z,89.52
2024-05-09T01:45:31.133Z,89.40
2024-05-09T01:46:37.151Z,89.37
2024-05-09T01:47:43.564Z,89.49
2024-05-09T01:48:50.738Z,89.50
2024-05-09T01:49:58.351Z,89.28
2024-05-09T01:51:09.094Z,89.28
2024-05-09T01:52:15.909Z,89.45
2024-05-09T01:53:23.051Z,89.40
2024-05-09T01:54:29.547Z,89.30
2024-05-09T01:55:35.619Z,89.39
2024-05-09T01:56:41.822Z,89.57
2024-05-09T01:57:50.009Z,89.67
2024-05-09T01:58:57.475Z,89.54
2024-05-09T02:00:06.027Z,89.62
2024-05-09T02:01:13.971Z,89.55
2024-05-09T02:02:20.720Z,89.41
2024-05-09T02:03:27.562Z,89.47
2024-05-09T02:04:34.833Z,89.67
2024-05-09T02:05:42.274Z,89.44
2024-05-09T02:06:50.296Z,89.39
2024-05-09T02:07:56.388Z,89.18
2024-05-09T02:09:02.405Z,89.28
2024-05-09T02:10:20.160Z,89.36
2024-05-09T02:11:30.814Z,89.24
2024-05-09T02:12:39.571Z,89.50
2024-05-09T02:13:46.094Z,89.29
2024-05-09T02:14:53.304Z,89.20
2024-05-09T02:15:59.825Z,89.44
2024-05-09T02:17:06.889Z,89.31
2024-05-09T02:18:14.114Z,89.13
2024-05-09T02:19:21.381Z,89.45
2024-05-09T02:20:34.219Z,89.26
2024-05-09T02:21:42.759Z,89.18
2024-05-09T02:22:49.608Z,89.39
2024-05-09T02:23:56.158Z,89.59
2024-05-09T02:25:02.587Z,89.30
2024-05-09T02:26:08.748Z,89.46
2024-05-09T02:27:15.611Z,89.25
2024-05-09T02:28:24.065Z,89.41
2024-05-09T02:29:30.862Z,89.53
2024-05-09T02:30:40.682Z,89.15
2024-05-09T02:31:49.607Z,89.04
2024-05-09T02:32:55.993Z,89.07
2024-05-09T02:34:06.033Z,89.22
2024-05-09T02:35:12.339Z,89.28
2024-05-09T02:36:19.098Z,89.49
2024-05-09T02:37:25.661Z,89.24
2024-05-09T02:38:32.120Z,88.96
2024-05-09T02:39:38.494Z,88.80
2024-05-09T02:40:45.341Z,88.94
2024-05-09T02:41:51.973Z,89.06
2024-05-09T02:42:58.460Z,88.82
2024-05-09T02:44:04.923Z,88.88
2024-05-09T02:45:11.834Z,88.99
2024-05-09T02:46:18.500Z,89.09
2024-05-09T02:47:24.777Z,89.00
2024-05-09T02:48:32.885Z,88.69
2024-05-09T02:49:40.293Z,88.74
2024-05-09T02:50:48.584Z,88.66
2024-05-09T02:51:54.925Z,88.54
2024-05-09T02:53:01.400Z,88.32
2024-05-09T02:54:12.699Z,88.15
2024-05-09T02:55:18.706Z,88.05
2024-05-09T02:56:26.166Z,87.94
2024-05-09T02:57:32.636Z,87.97
2024-05-09T02:58:38.748Z,88.12
2024-05-09T02:59:47.394Z,88.06
2024-05-09T03:00:54.351Z,88.09
2024-05-09T03:02:01.530Z,88.13
2024-05-09T03:03:14.086Z,88.09
2024-05-09T03:04:26.005Z,88.03
2024-05-09T03:05:33.100Z,88.13
2024-05-09T03:06:43.569Z,87.84
2024-05-09T03:07:50.021Z,87.99
2024-05-09T03:08:56.673Z,87.83
2024-05-09T03:10:04.403Z,87.82
2024-05-09T03:11:21.139Z,88.14
2024-05-09T03:12:30.375Z,88.18
2024-05-09T03:13:38.764Z,88.26
2024-05-09T03:14:45.170Z,87.80
2024-05-09T03:15:53.040Z,87.91
2024-05-09T03:16:59.777Z,88.16
2024-05-09T03:18:07.623Z,87.92
2024-05-09T03:19:14.865Z,87.81
2024-05-09T03:20:27.319Z,87.76
2024-05-09T03:21:41.485Z,87.63
2024-05-09T03:22:47.663Z,87.49
2024-05-09T03:23:54.764Z,87.66
2024-05-09T03:25:01.467Z,87.82
2024-05-09T03:26:13.001Z,87.86
2024-05-09T03:27:20.443Z,87.99
2024-05-09T03:28:26.378Z,88.13
2024-05-09T03:29:33.414Z,87.99
2024-05-09T03:30:42.984Z,87.77
2024-05-09T03:31:52.031Z,87.94
2024-05-09T03:32:58.477Z,88.00
2024-05-09T03:34:05.482Z,88.01
2024-05-09T03:35:12.137Z,87.74
2024-05-09T03:36:18.494Z,87.69
2024-05-09T03:37:24.375Z,87.76
2024-05-09T03:38:30.719Z,87.77
2024-05-09T03:39:37.951Z,87.54
2024-05-09T03:40:51.810Z,87.55
2024-05-09T03:41:58.342Z,87.44
2024-05-09T03:43:06.492Z,87.58
2024-05-09T03:44:12.777Z,87.16
2024-05-09T03:45:19.418Z,87.32
2024-05-09T03:46:25.978Z,87.09
2024-05-09T03:47:35.867Z,87.24
2024-05-09T03:48:42.655Z,87.24
2024-05-09T03:49:48.967Z,87.36
2024-05-09T03:50:55.421Z,87.09
2024-05-09T03:52:06.233Z,87.26
2024-05-09T03:53:15.747Z,87.28
2024-05-09T03:54:25.609Z,87.17
2024-05-09T03:55:32.426Z,86.81
2024-05-09T03:56:40.370Z,86.54
2024-05-09T03:57:46.504Z,86.48
2024-05-09T03:58:55.688Z,86.53
2024-05-09T04:00:02.985Z,86.68
2024-05-09T04:01:12.682Z,86.71
2024-05-09T04:02:19.352Z,86.91
2024-05-09T04:03:25.724Z,87.06
2024-05-09T04:04:33.499Z,86.67
2024-05-09T04:05:40.025Z,86.74
2024-05-09T04:06:46.957Z,86.95
2024-05-09T04:07:54.825Z,86.72
2024-05-09T04:09:00.940Z,86.66
2024-05-09T04:10:13.891Z,86.58
2024-05-09T04:11:23.788Z,86.65
2024-05-09T04:12:30.638Z,86.64
2024-05-09T04:13:37.222Z,86.90
2024-05-09T04:14:43.264Z,87.10
2024-05-09T04:15:49.621Z,86.81
2024-05-09T04:16:56.400Z,86.53
2024-05-09T04:18:02.877Z,86.49
2024-05-09T04:19:09.407Z,86.55
2024-05-09T04:20:28.584Z,86.15
2024-05-09T04:21:42.759Z,86.39
2024-05-09T04:22:48.758Z,86.31
2024-05-09T04:23:55.923Z,86.02
2024-05-09T04:25:02.451Z,85.88
2024-05-09T04:26:09.187Z,85.83
2024-05-09T04:27:15.876Z,85.84
2024-05-09T04:28:25.627Z,85.55
2024-05-09T04:29:37.103Z,85.84
2024-05-09T04:30:43.992Z,85.82
2024-05-09T04:31:50.607Z,85.82
2024-05-09T04:32:57.005Z,86.05
2024-05-09T04:34:04.488Z,86.15
2024-05-09T04:35:11.394Z,85.40
2024-05-09T04:36:17.800Z,85.31
2024-05-09T04:37:25.706Z,85.51
2024-05-09T04:38:32.117Z,85.38
2024-05-09T04:39:40.855Z,85.31
2024-05-09T04:40:46.943Z,85.42
2024-05-09T04:41:53.691Z,85.33
2024-05-09T04:42:59.967Z,85.35
2024-05-09T04:44:08.535Z,85.00
2024-05-09T04:45:14.789Z,85.23
2024-05-09T04:46:21.573Z,85.38
2024-05-09T04:47:28.880Z,85.33
2024-05-09T04:48:37.210Z,85.62
2024-05-09T04:49:45.549Z,85.75
2024-05-09T04:50:52.629Z,85.51
2024-05-09T04:51:59.573Z,85.89
2024-05-09T04:53:07.356Z,85.60
2024-05-09T04:54:26.011Z,85.66
2024-05-09T04:55:41.212Z,85.33
2024-05-09T04:56:47.477Z,85.27
2024-05-09T04:57:53.556Z,85.09
2024-05-09T04:58:59.670Z,84.93
2024-05-09T05:00:14.776Z,84.98
2024-05-09T05:01:27.584Z,85.21
2024-05-09T05:02:34.367Z,84.99
2024-05-09T05:03:40.993Z,85.05
2024-05-09T05:04:47.968Z,85.24
2024-05-09T05:05:54.982Z,85.16
2024-05-09T05:07:02.964Z,84.89
2024-05-09T05:08:13.093Z,84.79
2024-05-09T05:09:21.939Z,84.61
2024-05-09T05:10:34.018Z,84.73
2024-05-09T05:11:43.361Z,84.66
2024-05-09T05:13:08.059Z,84.59
2024-05-09T05:14:14.345Z,84.52
2024-05-09T05:15:22.899Z,84.22
2024-05-09T05:16:29.127Z,83.72
2024-05-09T05:17:36.823Z,83.30
2024-05-09T05:18:44.511Z,83.59
2024-05-09T05:19:51.035Z,83.97
2024-05-09T05:21:01.394Z,84.00
2024-05-09T05:22:08.390Z,83.83
2024-05-09T05:23:18.647Z,83.73
2024-05-09T05:24:25.381Z,83.61
2024-05-09T05:25:31.626Z,83.54
2024-05-09T05:26:39.635Z,83.46
2024-05-09T05:27:46.001Z,83.39
2024-05-09T05:28:52.267Z,83.69
2024-05-09T05:29:58.488Z,83.35
2024-05-09T05:31:05.266Z,83.11
2024-05-09T05:32:11.964Z,83.29
2024-05-09T05:33:19.224Z,83.20
2024-05-09T05:34:26.521Z,82.69
2024-05-09T05:35:33.407Z,82.76
2024-05-09T05:36:40.008Z,82.92
2024-05-09T05:37:46.800Z,82.99
2024-05-09T05:38:54.886Z,83.13
2024-05-09T05:40:01.567Z,83.13
2024-05-09T05:41:08.407Z,83.32
2024-05-09T05:42:14.506Z,83.76
2024-05-09T05:43:21.247Z,83.33
2024-05-09T05:44:28.662Z,83.09
2024-05-09T05:45:34.988Z,83.31
2024-05-09T05:46:42.142Z,83.55
2024-05-09T05:47:49.125Z,83.67
2024-05-09T05:48:55.890Z,83.08
2024-05-09T05:50:02.365Z,81.35
2024-05-09T05:51:09.207Z,81.01
2024-05-09T05:52:15.675Z,81.52
2024-05-09T05:53:22.071Z,81.68
2024-05-09T05:54:29.188Z,81.79
2024-05-09T05:55:36.824Z,81.77
2024-05-09T05:56:42.762Z,81.77
2024-05-09T05:57:51.239Z,82.24
2024-05-09T05:58:57.484Z,82.37
2024-05-09T06:00:09.370Z,82.26
2024-05-09T06:01:17.260Z,82.23
2024-05-09T06:02:23.695Z,82.37
2024-05-09T06:03:30.500Z,82.42
2024-05-09T06:04:37.846Z,81.98
2024-05-09T06:05:48.109Z,81.91
2024-05-09T06:06:54.409Z,81.67
2024-05-09T06:08:01.742Z,81.64
2024-05-09T06:09:08.089Z,81.65
2024-05-09T06:10:21.266Z,81.34
2024-05-09T06:11:32.393Z,81.26
2024-05-09T06:12:41.276Z,80.94
2024-05-09T06:13:48.474Z,81.38
2024-05-09T06:14:55.021Z,81.13
2024-05-09T06:16:02.246Z,80.91
2024-05-09T06:17:10.044Z,81.03
2024-05-09T06:18:19.964Z,81.10
2024-05-09T06:19:27.988Z,80.71
2024-05-09T06:20:37.477Z,80.42
2024-05-09T06:21:45.660Z,80.14
2024-05-09T06:22:52.245Z,80.22
2024-05-09T06:23:58.856Z,80.42
2024-05-09T06:25:06.385Z,80.50
2024-05-09T06:26:13.254Z,80.46
2024-05-09T06:27:20.508Z,80.52
2024-05-09T06:28:26.767Z,80.54
2024-05-09T06:29:33.268Z,80.71
2024-05-09T06:30:42.820Z,80.64
2024-05-09T06:31:51.116Z,80.32
2024-05-09T06:32:59.875Z,79.57
2024-05-09T06:34:07.107Z,79.50
2024-05-09T06:35:14.433Z,79.45
2024-05-09T06:36:20.896Z,79.10
2024-05-09T06:37:28.025Z,79.20
2024-05-09T06:38:34.380Z,79.28
2024-05-09T06:39:41.863Z,79.05
2024-05-09T06:40:48.029Z,79.40
2024-05-09T06:41:54.494Z,79.64
2024-05-09T06:43:02.190Z,79.94
2024-05-09T06:44:09.313Z,79.78
2024-05-09T06:45:17.359Z,79.65
2024-05-09T06:46:23.769Z,79.65
2024-05-09T06:47:30.355Z,79.88
2024-05-09T06:48:36.829Z,79.63
2024-05-09T06:49:43.576Z,79.41
2024-05-09T06:50:51.524Z,79.22
2024-05-09T06:51:58.546Z,79.23
2024-05-09T06:53:05.314Z,79.33
2024-05-09T06:54:12.368Z,79.31
2024-05-09T06:55:20.599Z,78.89
2024-05-09T06:56:27.015Z,78.59
2024-05-09T06:57:33.498Z,78.44
2024-05-09T06:58:40.181Z,78.36
2024-05-09T06:59:46.307Z,78.40
2024-05-09T07:00:52.670Z,78.84
2024-05-09T07:01:59.819Z,78.31
2024-05-09T07:03:09.459Z,78.20
2024-05-09T07:04:17.225Z,78.47
2024-05-09T07:05:23.948Z,78.50
2024-05-09T07:06:30.578Z,78.68
2024-05-09T07:07:37.068Z,78.85
2024-05-09T07:08:44.162Z,78.67
2024-05-09T07:09:50.813Z,78.49
2024-05-09T07:10:57.220Z,78.38
2024-05-09T07:12:08.781Z,78.35
2024-05-09T07:13:17.259Z,78.43
2024-05-09T07:14:23.281Z,78.41
2024-05-09T07:15:30.036Z,78.38
2024-05-09T07:16:36.214Z,78.19
2024-05-09T07:17:42.592Z,77.63
2024-05-09T07:18:55.204Z,77.01
2024-05-09T07:20:01.697Z,77.31
2024-05-09T07:21:08.949Z,77.68
2024-05-09T07:22:14.936Z,77.74
2024-05-09T07:23:21.236Z,77.11
2024-05-09T07:24:27.548Z,76.76
2024-05-09T07:25:35.873Z,76.89
2024-05-09T07:26:42.399Z,76.24
2024-05-09T07:27:49.392Z,76.29
2024-05-09T07:28:56.482Z,76.36
2024-05-09T07:30:04.000Z,76.97
2024-05-09T07:31:12.971Z,77.43
2024-05-09T07:32:19.733Z,77.60
2024-05-09T07:33:29.187Z,77.63
2024-05-09T07:34:36.246Z,78.02
2024-05-09T07:35:42.494Z,77.64
2024-05-09T07:36:48.427Z,77.36
2024-05-09T07:37:55.118Z,77.18
2024-05-09T07:39:01.822Z,76.89
2024-05-09T07:41:19.131Z,76.69
2024-05-09T07:42:26.326Z,76.53
2024-05-09T07:43:32.578Z,76.44
2024-05-09T07:44:38.659Z,76.57
2024-05-09T07:45:52.021Z,76.45
2024-05-09T07:48:14.078Z,75.79
2024-05-09T07:50:00.382Z,75.55
2024-05-09T07:51:32.894Z,75.49
2024-05-09T07:53:32.623Z,74.62
2024-05-09T07:53:59.856Z,75.12
2024-05-09T07:55:11.557Z,75.33
2024-05-09T07:56:20.411Z,75.04
2024-05-09T07:57:28.568Z,74.97
2024-05-09T07:58:35.142Z,75.14
2024-05-09T07:59:41.405Z,75.48
2024-05-09T08:00:47.959Z,75.05
2024-05-09T08:01:55.154Z,75.10
2024-05-09T08:03:02.556Z,74.97
2024-05-09T08:04:09.427Z,74.81
2024-05-09T08:05:16.943Z,75.02
2024-05-09T08:06:25.789Z,74.66
2024-05-09T08:07:35.492Z,74.29
2024-05-09T08:08:41.753Z,74.31
2024-05-09T08:09:48.903Z,74.05
2024-05-09T08:10:55.381Z,73.72
2024-05-09T08:12:02.266Z,73.42
2024-05-09T08:13:09.370Z,73.26
2024-05-09T08:14:15.723Z,72.90
2024-05-09T08:15:22.147Z,72.98
2024-05-09T08:16:28.798Z,72.68
2024-05-09T08:17:35.515Z,72.56
2024-05-09T08:18:41.879Z,72.32
2024-05-09T08:19:48.144Z,71.76
2024-05-09T08:20:54.429Z,71.01
2024-05-09T08:22:08.582Z,70.62
2024-05-09T08:23:15.434Z,70.60
2024-05-09T08:24:21.369Z,70.91
2024-05-09T08:25:27.668Z,70.83
2024-05-09T08:26:35.027Z,70.26
2024-05-09T08:27:42.617Z,70.27
2024-05-09T08:28:49.109Z,69.63
2024-05-09T08:29:55.542Z,70.47
2024-05-09T08:31:06.018Z,69.62
2024-05-09T08:32:15.452Z,67.59
2024-05-09T08:33:22.252Z,67.18
2024-05-09T08:34:28.959Z,67.83
2024-05-09T08:35:36.134Z,68.72
2024-05-09T08:36:42.684Z,68.98
2024-05-09T08:37:50.036Z,68.41
2024-05-09T08:38:57.134Z,67.00
2024-05-09T08:40:06.530Z,67.11
2024-05-09T08:41:15.951Z,67.66
2024-05-09T08:42:29.196Z,68.16
2024-05-09T08:43:39.001Z,68.39
2024-05-09T08:44:48.274Z,68.73
2024-05-09T08:45:54.822Z,69.00
2024-05-09T08:47:02.959Z,69.56
2024-05-09T08:48:12.397Z,69.35
2024-05-09T08:49:18.928Z,68.87
2024-05-09T08:50:32.484Z,69.18
2024-05-09T08:51:46.570Z,69.36
2024-05-09T08:52:53.230Z,69.49
2024-05-09T08:53:59.668Z,68.15
2024-05-09T08:55:07.624Z,67.27
2024-05-09T08:56:16.230Z,68.20
2024-05-09T08:57:23.104Z,68.60
2024-05-09T08:58:32.965Z,68.24
2024-05-09T08:59:44.934Z,67.87
2024-05-09T09:00:51.417Z,68.46
2024-05-09T09:01:59.018Z,68.60
2024-05-09T09:03:09.400Z,69.25
2024-05-09T09:04:18.638Z,69.15
2024-05-09T09:05:31.218Z,69.14
2024-05-09T09:06:38.850Z,68.58
2024-05-09T09:07:51.849Z,67.60
2024-05-09T09:09:00.474Z,67.96
2024-05-09T09:10:08.819Z,67.84
2024-05-09T09:11:18.680Z,66.72
2024-05-09T09:12:25.208Z,67.38
2024-05-09T09:13:31.800Z,66.96
2024-05-09T09:14:38.459Z,67.23
2024-05-09T09:15:51.045Z,66.95
2024-05-09T09:16:57.729Z,67.04
2024-05-09T09:18:04.949Z,66.69
2024-05-09T09:19:15.216Z,66.98
2024-05-09T09:20:33.313Z,67.17
2024-05-09T09:21:42.488Z,67.16
2024-05-09T09:22:49.896Z,67.12
2024-05-09T09:23:56.108Z,67.30
2024-05-09T09:25:03.119Z,67.64
2024-05-09T09:26:15.170Z,67.63
2024-05-09T09:27:21.929Z,67.95
2024-05-09T09:28:29.897Z,67.84
2024-05-09T09:29:39.517Z,67.33
2024-05-09T09:30:45.704Z,67.03
2024-05-09T09:32:07.218Z,66.89
2024-05-09T09:33:13.711Z,66.86
2024-05-09T09:34:21.164Z,67.25
2024-05-09T09:35:30.271Z,67.21
2024-05-09T09:36:39.150Z,65.29
2024-05-09T09:37:47.360Z,63.38
2024-05-09T09:38:55.181Z,63.95
2024-05-09T09:40:04.745Z,64.45
2024-05-09T09:41:12.796Z,64.06
2024-05-09T09:42:23.376Z,63.76
2024-05-09T09:43:31.661Z,63.60
2024-05-09T09:44:42.272Z,64.23
2024-05-09T09:45:56.668Z,63.64
2024-05-09T09:47:04.534Z,63.08
2024-05-09T09:48:15.336Z,63.66
2024-05-09T09:49:23.192Z,63.69
2024-05-09T09:50:35.114Z,63.07
2024-05-09T09:51:46.146Z,62.28
2024-05-09T09:52:55.207Z,61.98
2024-05-09T09:54:04.299Z,63.29
2024-05-09T09:55:11.873Z,64.13
2024-05-09T09:56:22.110Z,64.59
2024-05-09T09:57:34.734Z,64.01
2024-05-09T09:58:45.983Z,62.46
2024-05-09T09:59:59.379Z,62.08
2024-05-09T10:01:07.493Z,61.42
2024-05-09T10:02:16.468Z,61.88
2024-05-09T10:03:23.256Z,61.03
2024-05-09T10:04:29.387Z,61.37
2024-05-09T10:05:36.748Z,62.37
2024-05-09T10:06:47.923Z,61.28
2024-05-09T10:07:55.070Z,61.23
2024-05-09T10:09:03.830Z,61.14
2024-05-09T10:10:16.137Z,61.61
2024-05-09T10:11:24.856Z,61.23
2024-05-09T10:12:31.264Z,61.27
2024-05-09T10:13:42.270Z,61.04
2024-05-09T10:14:50.328Z,61.75
2024-05-09T10:15:56.571Z,61.65
2024-05-09T10:17:09.264Z,61.04
2024-05-09T10:18:17.114Z,58.54
2024-05-09T10:19:29.252Z,58.67
2024-05-09T10:20:43.505Z,59.07
2024-05-09T10:21:49.927Z,59.66
2024-05-09T10:22:57.677Z,59.68
2024-05-09T10:24:08.507Z,58.57
2024-05-09T10:25:17.468Z,58.32
2024-05-09T10:26:33.432Z,58.46
2024-05-09T10:27:37.855Z,59.50
2024-05-09T10:28:45.820Z,60.20
2024-05-09T10:29:55.402Z,60.65
2024-05-09T10:31:12.790Z,60.59
2024-05-09T10:32:19.765Z,60.05
2024-05-09T10:33:36.100Z,60.47
2024-05-09T10:34:44.319Z,59.81
2024-05-09T10:35:54.541Z,58.97
2024-05-09T10:37:04.904Z,59.09
2024-05-09T10:38:15.058Z,59.25
2024-05-09T10:39:23.875Z,59.05
2024-05-09T10:40:32.162Z,59.55
2024-05-09T10:41:42.773Z,59.54
2024-05-09T10:42:48.916Z,59.18
2024-05-09T10:43:55.294Z,59.42
2024-05-09T10:45:04.460Z,59.71
2024-05-09T10:46:18.738Z,60.28
2024-05-09T10:47:25.985Z,59.83
2024-05-09T10:48:35.012Z,58.76
2024-05-09T10:49:42.866Z,59.78
2024-05-09T10:50:49.852Z,59.33
2024-05-09T10:51:57.083Z,59.65
2024-05-09T10:53:04.440Z,59.93
2024-05-09T10:54:11.546Z,59.80
2024-05-09T10:55:18.199Z,59.43
2024-05-09T10:56:25.346Z,59.59
2024-05-09T10:57:41.013Z,58.93
2024-05-09T10:58:47.964Z,59.27
2024-05-09T10:59:53.951Z,59.87
2024-05-09T11:01:01.195Z,59.89
2024-05-09T11:02:11.223Z,60.00
2024-05-09T11:03:19.755Z,60.04
2024-05-09T11:04:27.902Z,59.99
2024-05-09T11:05:35.676Z,60.22
2024-05-09T11:06:41.492Z,60.08
2024-05-09T11:07:47.990Z,60.40
2024-05-09T11:08:54.370Z,60.58
2024-05-09T11:10:02.792Z,61.01
2024-05-09T11:11:10.399Z,61.45
2024-05-09T11:12:19.313Z,59.99
2024-05-09T11:13:31.844Z,59.79
2024-05-09T11:14:38.787Z,59.84
2024-05-09T11:15:45.111Z,59.81
2024-05-09T11:17:02.028Z,59.81
2024-05-09T11:18:24.656Z,60.33
2024-05-09T11:19:34.625Z,60.78
2024-05-09T11:20:41.245Z,61.16
2024-05-09T11:21:52.627Z,61.47
2024-05-09T11:22:59.594Z,61.38
2024-05-09T11:24:09.573Z,61.86
2024-05-09T11:25:19.089Z,62.04
2024-05-09T11:26:29.222Z,62.29
2024-05-09T11:27:35.636Z,62.48
2024-05-09T11:28:47.479Z,61.91
2024-05-09T11:29:54.137Z,61.42
2024-05-09T11:31:10.481Z,60.55
2024-05-09T11:32:35.302Z,60.17
2024-05-09T11:33:48.402Z,60.25
2024-05-09T11:34:55.017Z,60.19
2024-05-09T11:36:02.772Z,60.30
2024-05-09T11:37:10.625Z,60.48
2024-05-09T11:38:17.449Z,59.86
2024-05-09T11:39:25.448Z,59.58
2024-05-09T11:41:39.418Z,59.77
2024-05-09T11:42:48.787Z,59.97
2024-05-09T11:43:58.667Z,59.91
2024-05-09T11:45:07.106Z,60.19
2024-05-09T11:46:13.868Z,59.91
2024-05-09T11:47:22.631Z,59.76
2024-05-09T11:48:29.955Z,60.04
2024-05-09T11:49:36.605Z,60.74
2024-05-09T11:50:42.895Z,61.40
2024-05-09T11:51:49.252Z,60.87
2024-05-09T11:52:55.528Z,61.24
2024-05-09T11:54:01.406Z,61.30
2024-05-09T11:55:09.358Z,60.87
2024-05-09T11:56:17.238Z,59.48
2024-05-09T11:57:28.726Z,60.14
2024-05-09T11:58:37.143Z,59.56
2024-05-09T11:59:43.412Z,59.11
2024-05-09T12:00:51.780Z,58.67
2024-05-09T12:01:58.548Z,58.43
2024-05-09T12:03:08.117Z,59.58
2024-05-09T12:04:15.104Z,59.42
2024-05-09T12:05:22.396Z,59.00
2024-05-09T12:06:29.568Z,59.21
2024-05-09T12:07:38.357Z,59.20
2024-05-09T12:08:44.490Z,58.69
2024-05-09T12:09:50.761Z,58.75
2024-05-09T12:10:57.451Z,58.62
2024-05-09T12:12:04.790Z,58.47
2024-05-09T12:13:11.249Z,58.78
2024-05-09T12:14:18.219Z,59.05
2024-05-09T12:15:25.779Z,58.93
2024-05-09T12:16:32.247Z,59.36
2024-05-09T12:17:39.122Z,59.36
2024-05-09T12:18:45.364Z,59.15
2024-05-09T12:19:53.869Z,59.05
2024-05-09T12:21:00.780Z,59.01
2024-05-09T12:22:08.190Z,58.99
2024-05-09T12:23:14.787Z,59.17
2024-05-09T12:24:22.026Z,59.01
2024-05-09T12:25:28.142Z,59.15
2024-05-09T12:26:34.416Z,59.07
2024-05-09T12:27:40.735Z,59.42
2024-05-09T12:28:46.853Z,59.63
2024-05-09T12:29:53.137Z,59.62
2024-05-09T12:30:59.627Z,59.42
2024-05-09T12:32:09.178Z,59.72
2024-05-09T12:33:15.896Z,59.96
2024-05-09T12:34:24.703Z,60.58
2024-05-09T12:35:32.388Z,60.28
2024-05-09T12:36:38.319Z,60.30
2024-05-09T12:37:44.602Z,60.31
2024-05-09T12:38:50.948Z,59.82
2024-05-09T12:39:57.596Z,60.04
2024-05-09T12:41:04.754Z,60.49
2024-05-09T12:42:16.589Z,59.98
2024-05-09T12:43:29.266Z,60.05
2024-05-09T12:44:36.036Z,59.99
2024-05-09T12:45:45.085Z,60.42
2024-05-09T12:46:51.708Z,60.86
2024-05-09T12:47:58.358Z,61.19
2024-05-09T12:49:04.725Z,60.57
2024-05-09T12:50:21.842Z,60.18
2024-05-09T12:51:31.847Z,60.59
2024-05-09T12:52:39.339Z,60.78
2024-05-09T12:53:45.794Z,60.30
2024-05-09T12:54:52.693Z,60.53
2024-05-09T12:56:03.165Z,60.81
2024-05-09T12:57:12.482Z,60.83
2024-05-09T12:58:19.452Z,60.50
2024-05-09T12:59:26.173Z,60.95
2024-05-09T13:00:34.234Z,60.95
2024-05-09T13:01:40.967Z,61.13
2024-05-09T13:02:47.911Z,61.35
2024-05-09T13:03:56.138Z,61.58
2024-05-09T13:05:03.335Z,61.76
2024-05-09T13:06:10.264Z,61.47
2024-05-09T13:07:17.012Z,61.56
2024-05-09T13:08:23.433Z,61.94
2024-05-09T13:09:29.917Z,61.59
2024-05-09T13:10:37.324Z,61.40
2024-05-09T13:11:43.521Z,61.61
2024-05-09T13:12:49.645Z,61.56
2024-05-09T13:13:56.416Z,61.94
2024-05-09T13:15:03.736Z,62.24
2024-05-09T13:16:10.854Z,62.28
2024-05-09T13:17:17.194Z,62.42
2024-05-09T13:18:25.656Z,62.15
2024-05-09T13:19:31.813Z,62.24
2024-05-09T13:20:38.834Z,62.31
2024-05-09T13:21:45.286Z,62.63
2024-05-09T13:22:51.568Z,62.85
2024-05-09T13:23:59.251Z,63.62
2024-05-09T13:25:10.740Z,63.25
2024-05-09T13:26:17.341Z,63.36
2024-05-09T13:27:23.870Z,62.96
2024-05-09T13:28:32.814Z,62.89
2024-05-09T13:29:42.823Z,63.69
2024-05-09T13:30:50.386Z,63.92
2024-05-09T13:31:57.152Z,63.77
2024-05-09T13:33:05.538Z,63.14
2024-05-09T13:34:12.280Z,63.01
2024-05-09T13:35:18.812Z,63.14
2024-05-09T13:36:25.454Z,63.10
2024-05-09T13:37:32.905Z,62.63
2024-05-09T13:38:39.232Z,63.02
2024-05-09T13:39:45.938Z,63.10
2024-05-09T13:40:53.007Z,63.34
2024-05-09T13:41:59.139Z,63.67
2024-05-09T13:43:05.556Z,63.75
2024-05-09T13:44:12.758Z,63.89
2024-05-09T13:45:18.915Z,63.73
2024-05-09T13:46:25.086Z,63.84
2024-05-09T13:47:31.843Z,64.16
2024-05-09T13:48:39.140Z,64.28
2024-05-09T13:49:46.045Z,63.95
2024-05-09T13:50:52.789Z,63.84
2024-05-09T13:51:59.669Z,64.23
2024-05-09T13:53:07.577Z,64.62
2024-05-09T13:54:16.729Z,64.06
2024-05-09T13:55:26.867Z,63.77
2024-05-09T13:56:33.523Z,63.76
2024-05-09T13:57:39.685Z,63.79
2024-05-09T13:58:46.343Z,64.00
2024-05-09T13:59:52.616Z,64.34
2024-05-09T14:00:58.728Z,64.46
2024-05-09T14:02:05.323Z,64.67
2024-05-09T14:03:13.127Z,64.83
2024-05-09T14:04:20.009Z,64.82
2024-05-09T14:05:27.055Z,65.04
2024-05-09T14:06:35.263Z,65.23
2024-05-09T14:07:41.894Z,65.61
2024-05-09T14:08:48.748Z,65.67
2024-05-09T14:09:55.109Z,65.97
2024-05-09T14:11:01.836Z,65.72
2024-05-09T14:12:11.495Z,65.55
2024-05-09T14:13:21.577Z,65.61
2024-05-09T14:14:28.123Z,65.93
2024-05-09T14:15:34.828Z,65.73
2024-05-09T14:16:43.570Z,66.05
2024-05-09T14:17:49.808Z,65.91
2024-05-09T14:18:56.950Z,65.97
2024-05-09T14:20:04.792Z,66.28
2024-05-09T14:21:12.492Z,66.42
2024-05-09T14:22:23.098Z,66.65
2024-05-09T14:23:30.957Z,66.58
2024-05-09T14:24:37.070Z,66.35
2024-05-09T14:25:44.595Z,66.65
2024-05-09T14:26:50.316Z,66.86
2024-05-09T14:27:57.120Z,66.58
2024-05-09T14:29:03.375Z,66.75
2024-05-09T14:30:18.462Z,66.80
2024-05-09T14:31:32.985Z,67.44
2024-05-09T14:32:42.583Z,67.53
2024-05-09T14:33:49.570Z,67.95
2024-05-09T14:34:56.139Z,68.46
2024-05-09T14:36:02.593Z,67.39
2024-05-09T14:37:09.240Z,67.79
2024-05-09T14:38:16.091Z,68.04
2024-05-09T14:39:22.171Z,68.20
2024-05-09T14:40:38.946Z,68.43